sensor_id;sensor_type;location;lat;lon;timestamp;temperature;humidity
35541;DHT22;21650;48.840;9.162;2023-03-14T00:02:16;10.20;99.90
35541;DHT22;21650;48.840;9.162;2023-03-14T00:04:42;10.30;99.90
35541;DHT22;21650;48.840;9.162;2023-03-14T00:07:07;10.30;99.90
35541;DHT22;21650;48.840;9.162;2023-03-14T00:09:33;10.30;99.90
35541;DHT22;21650;48.840;9.162;2023-03-14T00:11:58;10.30;99.90
35541;DHT22;21650;48.840;9.162;2023-03-14T00:14:24;10.30;99.90
35541;DHT22;21650;48.840;9.162;2023-03-14T00:16:49;10.30;99.90
35541;DHT22;21650;48.840;9.162;2023-03-14T00:19:15;10.30;99.90
35541;DHT22;21650;48.840;9.162;2023-03-14T00:21:41;10.30;99.90
35541;DHT22;21650;48.840;9.162;2023-03-14T00:24:07;10.30;99.90
35541;DHT22;21650;48.840;9.162;2023-03-14T00:26:33;10.30;99.90
35541;DHT22;21650;48.840;9.162;2023-03-14T00:28:58;10.20;99.90
35541;DHT22;21650;48.840;9.162;2023-03-14T00:31:24;10.20;99.90
35541;DHT22;21650;48.840;9.162;2023-03-14T00:33:52;10.20;99.90
35541;DHT22;21650;48.840;9.162;2023-03-14T00:36:17;10.20;99.90
35541;DHT22;21650;48.840;9.162;2023-03-14T00:38:47;10.20;99.90
35541;DHT22;21650;48.840;9.162;2023-03-14T00:41:14;10.20;99.90
35541;DHT22;21650;48.840;9.162;2023-03-14T00:43:40;10.20;99.90
35541;DHT22;21650;48.840;9.162;2023-03-14T00:46:06;10.20;99.90
35541;DHT22;21650;48.840;9.162;2023-03-14T00:48:32;10.10;99.90
35541;DHT22;21650;48.840;9.162;2023-03-14T00:50:58;10.10;99.90
35541;DHT22;21650;48.840;9.162;2023-03-14T00:53:24;10.10;99.90
35541;DHT22;21650;48.840;9.162;2023-03-14T00:55:49;10.10;99.90
35541;DHT22;21650;48.840;9.162;2023-03-14T00:58:17;10.10;99.90
35541;DHT22;21650;48.840;9.162;2023-03-14T01:00:44;10.20;99.90
35541;DHT22;21650;48.840;9.162;2023-03-14T01:03:11;10.10;99.90
35541;DHT22;21650;48.840;9.162;2023-03-14T01:05:37;10.10;99.90
35541;DHT22;21650;48.840;9.162;2023-03-14T01:11:31;10.20;99.90
35541;DHT22;21650;48.840;9.162;2023-03-14T01:13:57;10.20;99.90
35541;DHT22;21650;48.840;9.162;2023-03-14T01:16:24;10.20;99.90
35541;DHT22;21650;48.840;9.162;2023-03-14T01:18:50;10.20;99.90
35541;DHT22;21650;48.840;9.162;2023-03-14T01:21:18;10.20;99.90
35541;DHT22;21650;48.840;9.162;2023-03-14T01:23:45;10.30;99.90
35541;DHT22;21650;48.840;9.162;2023-03-14T01:26:12;10.30;99.90
35541;DHT22;21650;48.840;9.162;2023-03-14T01:28:39;10.30;99.90
35541;DHT22;21650;48.840;9.162;2023-03-14T01:31:07;10.20;99.90
35541;DHT22;21650;48.840;9.162;2023-03-14T01:33:32;10.20;99.90
35541;DHT22;21650;48.840;9.162;2023-03-14T01:35:59;10.30;99.90
35541;DHT22;21650;48.840;9.162;2023-03-14T01:38:24;10.30;99.90
35541;DHT22;21650;48.840;9.162;2023-03-14T01:40:50;10.30;99.90
35541;DHT22;21650;48.840;9.162;2023-03-14T01:43:18;10.30;99.90
35541;DHT22;21650;48.840;9.162;2023-03-14T01:51:33;10.20;99.90
35541;DHT22;21650;48.840;9.162;2023-03-14T01:54:22;10.20;99.90
35541;DHT22;21650;48.840;9.162;2023-03-14T01:56:57;10.20;99.90
35541;DHT22;21650;48.840;9.162;2023-03-14T01:59:28;10.20;99.90
35541;DHT22;21650;48.840;9.162;2023-03-14T02:01:55;10.20;99.90
35541;DHT22;21650;48.840;9.162;2023-03-14T02:04:21;10.20;99.90
35541;DHT22;21650;48.840;9.162;2023-03-14T02:07:05;10.10;99.90
35541;DHT22;21650;48.840;9.162;2023-03-14T02:09:33;10.20;99.90
35541;DHT22;21650;48.840;9.162;2023-03-14T02:11:59;10.20;99.90
35541;DHT22;21650;48.840;9.162;2023-03-14T02:14:33;10.30;99.90
35541;DHT22;21650;48.840;9.162;2023-03-14T02:17:01;10.30;99.90
35541;DHT22;21650;48.840;9.162;2023-03-14T02:22:15;10.20;99.90
35541;DHT22;21650;48.840;9.162;2023-03-14T02:24:57;10.20;99.90
35541;DHT22;21650;48.840;9.162;2023-03-14T02:27:25;10.20;99.90
35541;DHT22;21650;48.840;9.162;2023-03-14T02:30:05;10.10;99.90
35541;DHT22;21650;48.840;9.162;2023-03-14T02:32:33;10.20;99.90
35541;DHT22;21650;48.840;9.162;2023-03-14T02:35:05;10.20;99.90
35541;DHT22;21650;48.840;9.162;2023-03-14T02:37:56;10.10;99.90
35541;DHT22;21650;48.840;9.162;2023-03-14T02:40:24;10.10;99.90
35541;DHT22;21650;48.840;9.162;2023-03-14T02:42:50;10.10;99.90
35541;DHT22;21650;48.840;9.162;2023-03-14T02:47:52;10.00;99.90
35541;DHT22;21650;48.840;9.162;2023-03-14T02:50:21;10.00;99.90
35541;DHT22;21650;48.840;9.162;2023-03-14T02:52:48;10.00;99.90
35541;DHT22;21650;48.840;9.162;2023-03-14T02:55:13;10.10;99.90
35541;DHT22;21650;48.840;9.162;2023-03-14T02:57:39;10.10;99.90
35541;DHT22;21650;48.840;9.162;2023-03-14T03:00:05;10.00;99.90
35541;DHT22;21650;48.840;9.162;2023-03-14T03:02:32;10.00;99.90
35541;DHT22;21650;48.840;9.162;2023-03-14T03:04:57;9.90;99.90
35541;DHT22;21650;48.840;9.162;2023-03-14T03:07:23;9.90;99.90
35541;DHT22;21650;48.840;9.162;2023-03-14T03:09:49;9.90;99.90
35541;DHT22;21650;48.840;9.162;2023-03-14T03:12:15;9.90;99.90
35541;DHT22;21650;48.840;9.162;2023-03-14T03:14:40;9.90;99.90
35541;DHT22;21650;48.840;9.162;2023-03-14T03:17:06;10.00;99.90
35541;DHT22;21650;48.840;9.162;2023-03-14T03:19:33;10.00;99.90
35541;DHT22;21650;48.840;9.162;2023-03-14T03:21:58;9.90;99.90
35541;DHT22;21650;48.840;9.162;2023-03-14T03:24:25;9.90;99.90
35541;DHT22;21650;48.840;9.162;2023-03-14T03:26:51;9.90;99.90
35541;DHT22;21650;48.840;9.162;2023-03-14T03:29:16;9.90;99.90
35541;DHT22;21650;48.840;9.162;2023-03-14T03:31:42;9.90;99.90
35541;DHT22;21650;48.840;9.162;2023-03-14T03:34:07;10.00;99.90
35541;DHT22;21650;48.840;9.162;2023-03-14T03:36:33;10.00;99.90
35541;DHT22;21650;48.840;9.162;2023-03-14T03:38:59;9.90;99.90
35541;DHT22;21650;48.840;9.162;2023-03-14T03:41:25;9.90;99.90
35541;DHT22;21650;48.840;9.162;2023-03-14T03:43:50;9.80;99.90
35541;DHT22;21650;48.840;9.162;2023-03-14T03:46:16;9.90;99.90
35541;DHT22;21650;48.840;9.162;2023-03-14T03:48:41;9.80;99.90
35541;DHT22;21650;48.840;9.162;2023-03-14T03:51:07;9.80;99.90
35541;DHT22;21650;48.840;9.162;2023-03-14T03:53:36;9.70;99.90
35541;DHT22;21650;48.840;9.162;2023-03-14T03:56:02;9.70;99.90
35541;DHT22;21650;48.840;9.162;2023-03-14T03:58:27;9.70;99.90
35541;DHT22;21650;48.840;9.162;2023-03-14T04:00:54;9.70;99.90
35541;DHT22;21650;48.840;9.162;2023-03-14T04:03:19;9.70;99.90
35541;DHT22;21650;48.840;9.162;2023-03-14T04:05:45;9.60;99.90
35541;DHT22;21650;48.840;9.162;2023-03-14T04:08:10;9.70;99.90
35541;DHT22;21650;48.840;9.162;2023-03-14T04:10:36;9.60;99.90
35541;DHT22;21650;48.840;9.162;2023-03-14T04:13:02;9.60;99.90
35541;DHT22;21650;48.840;9.162;2023-03-14T04:15:27;9.50;99.90
35541;DHT22;21650;48.840;9.162;2023-03-14T04:17:57;9.60;99.90
35541;DHT22;21650;48.840;9.162;2023-03-14T04:20:23;9.60;99.90
35541;DHT22;21650;48.840;9.162;2023-03-14T04:22:48;9.60;99.90
35541;DHT22;21650;48.840;9.162;2023-03-14T04:25:14;9.60;99.90
35541;DHT22;21650;48.840;9.162;2023-03-14T04:27:41;9.50;99.90
35541;DHT22;21650;48.840;9.162;2023-03-14T04:30:07;9.50;99.90
35541;DHT22;21650;48.840;9.162;2023-03-14T04:32:33;9.50;99.90
35541;DHT22;21650;48.840;9.162;2023-03-14T04:34:59;9.40;99.90
35541;DHT22;21650;48.840;9.162;2023-03-14T04:37:24;9.40;99.90
35541;DHT22;21650;48.840;9.162;2023-03-14T04:39:50;9.40;99.90
35541;DHT22;21650;48.840;9.162;2023-03-14T04:42:15;9.40;99.90
35541;DHT22;21650;48.840;9.162;2023-03-14T04:44:41;9.30;99.90
35541;DHT22;21650;48.840;9.162;2023-03-14T04:47:08;9.30;99.90
35541;DHT22;21650;48.840;9.162;2023-03-14T04:49:34;9.30;99.90
35541;DHT22;21650;48.840;9.162;2023-03-14T04:51:59;9.30;99.90
35541;DHT22;21650;48.840;9.162;2023-03-14T04:54:25;9.40;99.90
35541;DHT22;21650;48.840;9.162;2023-03-14T04:56:50;9.40;99.90
35541;DHT22;21650;48.840;9.162;2023-03-14T04:59:16;9.30;99.90
35541;DHT22;21650;48.840;9.162;2023-03-14T05:01:41;9.30;99.90
35541;DHT22;21650;48.840;9.162;2023-03-14T05:04:06;9.30;99.90
35541;DHT22;21650;48.840;9.162;2023-03-14T05:06:32;9.40;99.90
35541;DHT22;21650;48.840;9.162;2023-03-14T05:08:57;9.30;99.90
35541;DHT22;21650;48.840;9.162;2023-03-14T05:11:23;9.30;99.90
35541;DHT22;21650;48.840;9.162;2023-03-14T05:13:48;9.20;99.90
35541;DHT22;21650;48.840;9.162;2023-03-14T05:16:14;9.20;99.90
35541;DHT22;21650;48.840;9.162;2023-03-14T05:18:40;9.10;99.90
35541;DHT22;21650;48.840;9.162;2023-03-14T05:21:05;9.10;99.90
35541;DHT22;21650;48.840;9.162;2023-03-14T05:23:31;9.10;99.90
35541;DHT22;21650;48.840;9.162;2023-03-14T05:25:57;9.00;99.90
35541;DHT22;21650;48.840;9.162;2023-03-14T05:28:23;9.00;99.90
35541;DHT22;21650;48.840;9.162;2023-03-14T05:30:48;9.10;99.90
35541;DHT22;21650;48.840;9.162;2023-03-14T05:33:14;9.20;99.90
35541;DHT22;21650;48.840;9.162;2023-03-14T05:35:39;9.20;99.90
35541;DHT22;21650;48.840;9.162;2023-03-14T05:38:05;9.20;99.90
35541;DHT22;21650;48.840;9.162;2023-03-14T05:40:30;9.10;99.90
35541;DHT22;21650;48.840;9.162;2023-03-14T05:42:56;9.10;99.90
35541;DHT22;21650;48.840;9.162;2023-03-14T05:45:21;9.10;99.90
35541;DHT22;21650;48.840;9.162;2023-03-14T05:47:47;9.10;99.90
35541;DHT22;21650;48.840;9.162;2023-03-14T05:50:12;9.10;99.90
35541;DHT22;21650;48.840;9.162;2023-03-14T05:52:38;9.10;99.90
35541;DHT22;21650;48.840;9.162;2023-03-14T05:55:04;9.20;99.90
35541;DHT22;21650;48.840;9.162;2023-03-14T05:57:29;9.20;99.90
35541;DHT22;21650;48.840;9.162;2023-03-14T05:59:55;9.20;99.90
35541;DHT22;21650;48.840;9.162;2023-03-14T06:02:20;9.30;99.90
35541;DHT22;21650;48.840;9.162;2023-03-14T06:04:46;9.30;99.90
35541;DHT22;21650;48.840;9.162;2023-03-14T06:07:12;9.40;99.90
35541;DHT22;21650;48.840;9.162;2023-03-14T06:09:37;9.40;99.90
35541;DHT22;21650;48.840;9.162;2023-03-14T06:12:05;9.50;99.90
35541;DHT22;21650;48.840;9.162;2023-03-14T06:14:30;9.50;99.90
35541;DHT22;21650;48.840;9.162;2023-03-14T06:16:56;9.50;99.90
35541;DHT22;21650;48.840;9.162;2023-03-14T06:19:21;9.40;99.90
35541;DHT22;21650;48.840;9.162;2023-03-14T06:21:47;9.50;99.90
35541;DHT22;21650;48.840;9.162;2023-03-14T06:24:13;9.50;99.90
35541;DHT22;21650;48.840;9.162;2023-03-14T06:26:38;9.50;99.90
35541;DHT22;21650;48.840;9.162;2023-03-14T06:29:04;9.50;99.90
35541;DHT22;21650;48.840;9.162;2023-03-14T06:31:31;9.50;99.90
35541;DHT22;21650;48.840;9.162;2023-03-14T06:33:56;9.50;99.90
35541;DHT22;21650;48.840;9.162;2023-03-14T06:36:22;9.50;99.90
35541;DHT22;21650;48.840;9.162;2023-03-14T06:38:47;9.50;99.90
35541;DHT22;21650;48.840;9.162;2023-03-14T06:41:13;9.50;99.90
35541;DHT22;21650;48.840;9.162;2023-03-14T06:43:39;9.50;99.90
35541;DHT22;21650;48.840;9.162;2023-03-14T06:46:04;9.50;99.90
35541;DHT22;21650;48.840;9.162;2023-03-14T06:48:30;9.50;99.90
35541;DHT22;21650;48.840;9.162;2023-03-14T06:50:56;9.50;99.90
35541;DHT22;21650;48.840;9.162;2023-03-14T06:53:21;9.50;99.90
35541;DHT22;21650;48.840;9.162;2023-03-14T06:55:47;9.50;99.90
35541;DHT22;21650;48.840;9.162;2023-03-14T06:58:12;9.50;99.90
35541;DHT22;21650;48.840;9.162;2023-03-14T07:00:38;9.60;99.90
35541;DHT22;21650;48.840;9.162;2023-03-14T07:03:03;9.60;99.90
35541;DHT22;21650;48.840;9.162;2023-03-14T07:05:29;9.60;99.90
35541;DHT22;21650;48.840;9.162;2023-03-14T07:07:55;9.70;99.90
35541;DHT22;21650;48.840;9.162;2023-03-14T07:10:21;9.70;99.90
35541;DHT22;21650;48.840;9.162;2023-03-14T07:12:46;9.80;99.90
35541;DHT22;21650;48.840;9.162;2023-03-14T07:15:12;10.00;99.90
35541;DHT22;21650;48.840;9.162;2023-03-14T07:17:37;10.00;99.90
35541;DHT22;21650;48.840;9.162;2023-03-14T07:20:03;10.00;99.90
35541;DHT22;21650;48.840;9.162;2023-03-14T07:22:30;10.10;99.90
35541;DHT22;21650;48.840;9.162;2023-03-14T07:24:56;10.10;99.90
35541;DHT22;21650;48.840;9.162;2023-03-14T07:27:21;10.20;99.90
35541;DHT22;21650;48.840;9.162;2023-03-14T07:29:47;10.20;99.90
35541;DHT22;21650;48.840;9.162;2023-03-14T07:32:12;10.20;99.90
35541;DHT22;21650;48.840;9.162;2023-03-14T07:34:41;10.30;99.90
35541;DHT22;21650;48.840;9.162;2023-03-14T07:37:06;10.30;99.90
35541;DHT22;21650;48.840;9.162;2023-03-14T07:39:32;10.40;99.90
35541;DHT22;21650;48.840;9.162;2023-03-14T07:41:57;10.60;99.90
35541;DHT22;21650;48.840;9.162;2023-03-14T07:44:23;10.70;99.90
35541;DHT22;21650;48.840;9.162;2023-03-14T07:46:48;10.90;99.90
35541;DHT22;21650;48.840;9.162;2023-03-14T07:49:14;10.90;99.90
35541;DHT22;21650;48.840;9.162;2023-03-14T07:51:39;11.00;99.90
35541;DHT22;21650;48.840;9.162;2023-03-14T07:54:05;11.00;99.90
35541;DHT22;21650;48.840;9.162;2023-03-14T07:56:31;11.00;99.90
35541;DHT22;21650;48.840;9.162;2023-03-14T07:58:56;11.10;99.90
35541;DHT22;21650;48.840;9.162;2023-03-14T08:01:22;11.20;99.90
35541;DHT22;21650;48.840;9.162;2023-03-14T08:03:48;11.10;99.90
35541;DHT22;21650;48.840;9.162;2023-03-14T08:06:14;11.20;99.90
35541;DHT22;21650;48.840;9.162;2023-03-14T08:08:40;11.20;99.90
35541;DHT22;21650;48.840;9.162;2023-03-14T08:11:07;11.20;99.90
35541;DHT22;21650;48.840;9.162;2023-03-14T08:13:36;11.20;99.90
35541;DHT22;21650;48.840;9.162;2023-03-14T08:16:02;11.30;99.90
35541;DHT22;21650;48.840;9.162;2023-03-14T08:18:29;11.40;99.90
35541;DHT22;21650;48.840;9.162;2023-03-14T08:20:55;11.60;99.90
35541;DHT22;21650;48.840;9.162;2023-03-14T08:23:20;11.70;99.90
35541;DHT22;21650;48.840;9.162;2023-03-14T08:25:48;11.90;99.90
35541;DHT22;21650;48.840;9.162;2023-03-14T08:28:15;11.90;99.90
35541;DHT22;21650;48.840;9.162;2023-03-14T08:30:41;12.00;99.90
35541;DHT22;21650;48.840;9.162;2023-03-14T08:33:06;12.00;99.90
35541;DHT22;21650;48.840;9.162;2023-03-14T08:35:32;11.90;99.90
35541;DHT22;21650;48.840;9.162;2023-03-14T08:37:58;11.90;99.90
35541;DHT22;21650;48.840;9.162;2023-03-14T08:40:23;11.80;99.90
35541;DHT22;21650;48.840;9.162;2023-03-14T08:42:49;11.90;99.90
35541;DHT22;21650;48.840;9.162;2023-03-14T08:45:16;11.90;99.90
35541;DHT22;21650;48.840;9.162;2023-03-14T08:47:43;11.90;99.90
35541;DHT22;21650;48.840;9.162;2023-03-14T08:50:09;12.10;99.90
35541;DHT22;21650;48.840;9.162;2023-03-14T08:52:35;12.20;99.90
35541;DHT22;21650;48.840;9.162;2023-03-14T08:55:03;12.10;99.90
35541;DHT22;21650;48.840;9.162;2023-03-14T08:57:29;12.30;99.90
35541;DHT22;21650;48.840;9.162;2023-03-14T08:59:56;12.50;99.90
35541;DHT22;21650;48.840;9.162;2023-03-14T09:02:22;12.70;99.90
35541;DHT22;21650;48.840;9.162;2023-03-14T09:04:50;12.90;99.90
35541;DHT22;21650;48.840;9.162;2023-03-14T09:07:15;12.90;99.90
35541;DHT22;21650;48.840;9.162;2023-03-14T09:09:41;12.90;99.90
35541;DHT22;21650;48.840;9.162;2023-03-14T09:12:07;12.90;99.90
35541;DHT22;21650;48.840;9.162;2023-03-14T09:14:32;13.00;99.90
35541;DHT22;21650;48.840;9.162;2023-03-14T09:16:58;12.70;99.90
35541;DHT22;21650;48.840;9.162;2023-03-14T09:19:24;12.50;99.90
35541;DHT22;21650;48.840;9.162;2023-03-14T09:21:49;12.40;99.90
35541;DHT22;21650;48.840;9.162;2023-03-14T09:24:16;12.50;99.90
35541;DHT22;21650;48.840;9.162;2023-03-14T09:26:43;12.50;99.90
35541;DHT22;21650;48.840;9.162;2023-03-14T09:29:09;12.60;99.90
35541;DHT22;21650;48.840;9.162;2023-03-14T09:31:34;12.50;99.90
35541;DHT22;21650;48.840;9.162;2023-03-14T09:34:00;12.60;99.90
35541;DHT22;21650;48.840;9.162;2023-03-14T09:36:26;12.60;99.90
35541;DHT22;21650;48.840;9.162;2023-03-14T09:38:52;12.60;99.90
35541;DHT22;21650;48.840;9.162;2023-03-14T09:44:11;12.60;99.90
35541;DHT22;21650;48.840;9.162;2023-03-14T09:46:39;12.50;99.90
35541;DHT22;21650;48.840;9.162;2023-03-14T09:49:27;12.50;99.90
35541;DHT22;21650;48.840;9.162;2023-03-14T09:51:55;12.50;99.90
35541;DHT22;21650;48.840;9.162;2023-03-14T09:57:04;12.60;99.90
35541;DHT22;21650;48.840;9.162;2023-03-14T09:59:30;12.60;99.90
35541;DHT22;21650;48.840;9.162;2023-03-14T10:02:01;12.60;99.90
35541;DHT22;21650;48.840;9.162;2023-03-14T10:04:38;12.70;99.90
35541;DHT22;21650;48.840;9.162;2023-03-14T10:07:09;12.90;99.90
35541;DHT22;21650;48.840;9.162;2023-03-14T10:09:38;12.90;99.90
35541;DHT22;21650;48.840;9.162;2023-03-14T10:12:04;13.10;99.90
35541;DHT22;21650;48.840;9.162;2023-03-14T10:14:34;13.00;99.90
35541;DHT22;21650;48.840;9.162;2023-03-14T10:17:09;13.00;99.90
35541;DHT22;21650;48.840;9.162;2023-03-14T10:19:36;13.20;99.90
35541;DHT22;21650;48.840;9.162;2023-03-14T10:22:04;13.30;99.90
35541;DHT22;21650;48.840;9.162;2023-03-14T10:24:33;13.20;99.90
35541;DHT22;21650;48.840;9.162;2023-03-14T10:27:02;13.10;99.90
35541;DHT22;21650;48.840;9.162;2023-03-14T10:29:29;13.30;99.90
35541;DHT22;21650;48.840;9.162;2023-03-14T10:32:02;13.30;99.90
35541;DHT22;21650;48.840;9.162;2023-03-14T10:34:30;13.20;99.90
35541;DHT22;21650;48.840;9.162;2023-03-14T10:36:59;13.30;99.90
35541;DHT22;21650;48.840;9.162;2023-03-14T10:41:54;13.20;99.90
35541;DHT22;21650;48.840;9.162;2023-03-14T10:44:23;13.10;99.90
35541;DHT22;21650;48.840;9.162;2023-03-14T10:46:59;13.20;99.90
35541;DHT22;21650;48.840;9.162;2023-03-14T10:51:53;13.20;99.90
35541;DHT22;21650;48.840;9.162;2023-03-14T10:54:21;13.20;99.90
35541;DHT22;21650;48.840;9.162;2023-03-14T10:57:00;13.10;99.90
35541;DHT22;21650;48.840;9.162;2023-03-14T10:59:33;13.10;99.90
35541;DHT22;21650;48.840;9.162;2023-03-14T11:07:43;12.80;99.90
35541;DHT22;21650;48.840;9.162;2023-03-14T11:12:49;12.50;99.90
35541;DHT22;21650;48.840;9.162;2023-03-14T11:20:41;12.30;99.90
35541;DHT22;21650;48.840;9.162;2023-03-14T11:23:39;12.10;99.90
35541;DHT22;21650;48.840;9.162;2023-03-14T11:28:45;11.70;99.90
35541;DHT22;21650;48.840;9.162;2023-03-14T11:31:29;11.60;99.90
35541;DHT22;21650;48.840;9.162;2023-03-14T11:34:22;11.60;99.90
35541;DHT22;21650;48.840;9.162;2023-03-14T11:39:26;11.60;99.90
35541;DHT22;21650;48.840;9.162;2023-03-14T11:41:58;11.40;99.90
35541;DHT22;21650;48.840;9.162;2023-03-14T11:44:32;11.40;99.90
35541;DHT22;21650;48.840;9.162;2023-03-14T11:57:30;11.40;99.90
35541;DHT22;21650;48.840;9.162;2023-03-14T12:05:01;11.00;99.90
35541;DHT22;21650;48.840;9.162;2023-03-14T12:10:38;11.20;99.90
35541;DHT22;21650;48.840;9.162;2023-03-14T12:13:06;11.40;99.90
35541;DHT22;21650;48.840;9.162;2023-03-14T12:15:38;11.50;99.90
35541;DHT22;21650;48.840;9.162;2023-03-14T12:18:33;11.50;99.90
35541;DHT22;21650;48.840;9.162;2023-03-14T12:21:02;11.40;99.90
35541;DHT22;21650;48.840;9.162;2023-03-14T12:23:36;11.40;99.90
35541;DHT22;21650;48.840;9.162;2023-03-14T12:28:38;11.50;99.90
35541;DHT22;21650;48.840;9.162;2023-03-14T12:34:25;11.40;99.90
35541;DHT22;21650;48.840;9.162;2023-03-14T12:40:20;11.20;99.90
35541;DHT22;21650;48.840;9.162;2023-03-14T12:43:00;11.30;99.90
35541;DHT22;21650;48.840;9.162;2023-03-14T12:45:32;10.40;99.90
35541;DHT22;21650;48.840;9.162;2023-03-14T12:51:26;10.00;99.90
35541;DHT22;21650;48.840;9.162;2023-03-14T13:05:01;10.60;99.90
35541;DHT22;21650;48.840;9.162;2023-03-14T13:20:38;10.60;99.90
35541;DHT22;21650;48.840;9.162;2023-03-14T13:23:17;10.50;99.90
35541;DHT22;21650;48.840;9.162;2023-03-14T13:25:45;10.50;99.90
35541;DHT22;21650;48.840;9.162;2023-03-14T13:28:11;10.70;99.90
35541;DHT22;21650;48.840;9.162;2023-03-14T13:30:42;10.70;99.90
35541;DHT22;21650;48.840;9.162;2023-03-14T13:33:21;10.80;99.90
35541;DHT22;21650;48.840;9.162;2023-03-14T13:35:57;10.60;99.90
35541;DHT22;21650;48.840;9.162;2023-03-14T13:38:26;10.90;99.90
35541;DHT22;21650;48.840;9.162;2023-03-14T13:40:54;10.60;99.90
35541;DHT22;21650;48.840;9.162;2023-03-14T13:43:40;10.60;99.90
35541;DHT22;21650;48.840;9.162;2023-03-14T13:46:13;10.40;99.90
35541;DHT22;21650;48.840;9.162;2023-03-14T13:48:45;10.40;99.90
35541;DHT22;21650;48.840;9.162;2023-03-14T13:51:16;10.20;99.90
35541;DHT22;21650;48.840;9.162;2023-03-14T13:53:51;10.20;99.90
35541;DHT22;21650;48.840;9.162;2023-03-14T13:56:21;10.10;99.90
35541;DHT22;21650;48.840;9.162;2023-03-14T13:58:48;10.30;99.90
35541;DHT22;21650;48.840;9.162;2023-03-14T14:01:31;10.10;99.90
35541;DHT22;21650;48.840;9.162;2023-03-14T14:03:59;10.00;99.90
35541;DHT22;21650;48.840;9.162;2023-03-14T14:06:36;9.80;99.70
35541;DHT22;21650;48.840;9.162;2023-03-14T14:12:03;9.70;99.10
35541;DHT22;21650;48.840;9.162;2023-03-14T14:14:36;9.60;97.10
35541;DHT22;21650;48.840;9.162;2023-03-14T14:17:09;9.70;97.10
35541;DHT22;21650;48.840;9.162;2023-03-14T14:19:37;9.70;97.30
35541;DHT22;21650;48.840;9.162;2023-03-14T14:22:04;9.70;97.50
35541;DHT22;21650;48.840;9.162;2023-03-14T14:24:31;9.50;97.70
35541;DHT22;21650;48.840;9.162;2023-03-14T14:27:07;9.40;97.50
35541;DHT22;21650;48.840;9.162;2023-03-14T14:29:34;9.60;98.40
35541;DHT22;21650;48.840;9.162;2023-03-14T14:32:12;9.40;97.90
35541;DHT22;21650;48.840;9.162;2023-03-14T14:34:55;9.40;98.40
35541;DHT22;21650;48.840;9.162;2023-03-14T14:37:27;9.30;98.20
35541;DHT22;21650;48.840;9.162;2023-03-14T14:39:56;9.40;99.10
35541;DHT22;21650;48.840;9.162;2023-03-14T14:42:27;9.30;98.70
35541;DHT22;21650;48.840;9.162;2023-03-14T14:44:53;9.40;99.00
35541;DHT22;21650;48.840;9.162;2023-03-14T14:47:22;9.30;98.60
35541;DHT22;21650;48.840;9.162;2023-03-14T14:49:50;9.30;99.00
35541;DHT22;21650;48.840;9.162;2023-03-14T14:52:18;9.50;98.00
35541;DHT22;21650;48.840;9.162;2023-03-14T14:54:51;9.40;97.90
35541;DHT22;21650;48.840;9.162;2023-03-14T14:57:28;9.30;98.10
35541;DHT22;21650;48.840;9.162;2023-03-14T15:00:00;9.20;97.70
35541;DHT22;21650;48.840;9.162;2023-03-14T15:02:58;9.30;98.80
35541;DHT22;21650;48.840;9.162;2023-03-14T15:05:26;9.40;97.80
35541;DHT22;21650;48.840;9.162;2023-03-14T15:07:52;9.30;97.90
35541;DHT22;21650;48.840;9.162;2023-03-14T15:10:23;9.40;98.40
35541;DHT22;21650;48.840;9.162;2023-03-14T15:12:48;9.50;97.80
35541;DHT22;21650;48.840;9.162;2023-03-14T15:15:15;9.50;98.40
35541;DHT22;21650;48.840;9.162;2023-03-14T15:17:41;9.70;98.20
35541;DHT22;21650;48.840;9.162;2023-03-14T15:20:12;10.00;97.90
35541;DHT22;21650;48.840;9.162;2023-03-14T15:22:39;9.80;97.10
35541;DHT22;21650;48.840;9.162;2023-03-14T15:25:05;9.70;97.60
35541;DHT22;21650;48.840;9.162;2023-03-14T15:27:31;9.70;97.60
35541;DHT22;21650;48.840;9.162;2023-03-14T15:29:57;9.50;97.30
35541;DHT22;21650;48.840;9.162;2023-03-14T15:32:24;9.50;98.40
35541;DHT22;21650;48.840;9.162;2023-03-14T15:34:50;9.30;97.60
35541;DHT22;21650;48.840;9.162;2023-03-14T15:37:16;9.40;98.40
35541;DHT22;21650;48.840;9.162;2023-03-14T15:39:45;9.50;97.90
35541;DHT22;21650;48.840;9.162;2023-03-14T15:42:11;9.60;98.20
35541;DHT22;21650;48.840;9.162;2023-03-14T15:44:37;9.60;97.90
35541;DHT22;21650;48.840;9.162;2023-03-14T15:47:04;9.70;98.30
35541;DHT22;21650;48.840;9.162;2023-03-14T15:49:31;9.60;98.70
35541;DHT22;21650;48.840;9.162;2023-03-14T15:51:57;9.60;98.60
35541;DHT22;21650;48.840;9.162;2023-03-14T15:54:23;9.40;98.80
35541;DHT22;21650;48.840;9.162;2023-03-14T15:56:48;9.50;98.70
35541;DHT22;21650;48.840;9.162;2023-03-14T15:59:14;9.60;98.30
35541;DHT22;21650;48.840;9.162;2023-03-14T16:01:39;9.80;99.10
35541;DHT22;21650;48.840;9.162;2023-03-14T16:04:05;9.70;98.90
35541;DHT22;21650;48.840;9.162;2023-03-14T16:06:30;9.50;98.60
35541;DHT22;21650;48.840;9.162;2023-03-14T16:08:56;9.50;98.80
35541;DHT22;21650;48.840;9.162;2023-03-14T16:11:22;9.40;99.30
35541;DHT22;21650;48.840;9.162;2023-03-14T16:13:48;9.20;99.20
35541;DHT22;21650;48.840;9.162;2023-03-14T16:16:14;9.10;98.90
35541;DHT22;21650;48.840;9.162;2023-03-14T16:18:40;9.20;99.10
35541;DHT22;21650;48.840;9.162;2023-03-14T16:21:07;9.20;99.70
35541;DHT22;21650;48.840;9.162;2023-03-14T16:23:35;9.10;99.80
35541;DHT22;21650;48.840;9.162;2023-03-14T16:26:06;9.10;99.90
35541;DHT22;21650;48.840;9.162;2023-03-14T16:28:32;9.10;99.90
35541;DHT22;21650;48.840;9.162;2023-03-14T16:31:02;9.00;99.90
35541;DHT22;21650;48.840;9.162;2023-03-14T16:33:29;9.00;99.90
35541;DHT22;21650;48.840;9.162;2023-03-14T16:35:59;8.90;99.90
35541;DHT22;21650;48.840;9.162;2023-03-14T16:38:31;8.90;99.90
35541;DHT22;21650;48.840;9.162;2023-03-14T16:41:02;8.90;99.90
35541;DHT22;21650;48.840;9.162;2023-03-14T16:43:29;8.90;99.90
35541;DHT22;21650;48.840;9.162;2023-03-14T16:45:57;8.90;99.90
35541;DHT22;21650;48.840;9.162;2023-03-14T16:48:24;8.90;99.90
35541;DHT22;21650;48.840;9.162;2023-03-14T16:50:49;8.80;99.90
35541;DHT22;21650;48.840;9.162;2023-03-14T16:53:16;8.80;99.90
35541;DHT22;21650;48.840;9.162;2023-03-14T16:55:42;8.80;99.90
35541;DHT22;21650;48.840;9.162;2023-03-14T16:58:08;8.80;99.90
35541;DHT22;21650;48.840;9.162;2023-03-14T17:00:34;8.80;99.90
35541;DHT22;21650;48.840;9.162;2023-03-14T17:02:59;8.80;99.90
35541;DHT22;21650;48.840;9.162;2023-03-14T17:05:25;8.70;99.90
35541;DHT22;21650;48.840;9.162;2023-03-14T17:07:51;8.60;99.90
35541;DHT22;21650;48.840;9.162;2023-03-14T17:10:17;8.30;99.90
35541;DHT22;21650;48.840;9.162;2023-03-14T17:12:43;7.70;99.90
35541;DHT22;21650;48.840;9.162;2023-03-14T17:15:09;7.60;99.90
35541;DHT22;21650;48.840;9.162;2023-03-14T17:17:35;7.60;99.90
35541;DHT22;21650;48.840;9.162;2023-03-14T17:20:02;7.40;99.90
35541;DHT22;21650;48.840;9.162;2023-03-14T17:22:28;7.30;99.90
35541;DHT22;21650;48.840;9.162;2023-03-14T17:24:53;7.40;99.90